Time;durP1;ratioP1;P1;durP2;ratioP2;P2;SDS_P1;SDS_P2;PMS_P1;PMS_P2;Temp;Humidity;BMP_temperature;BMP_pressure;BME280_temperature;BME280_humidity;BME280_pressure;Samples;Min_cycle;Max_cycle;Signal;HPM_P1;HPM_P2
2023/06/28 00:01:41;;;;;;;0.70;0.40;;;21.60;1.00;;;;;;5138161;27;20488;-53
2023/06/28 00:04:09;;;;;;;0.90;0.50;;;21.70;1.00;;;;;;5137405;27;20427;-52
2023/06/28 00:06:36;;;;;;;0.60;0.40;;;21.60;1.00;;;;;;5137246;27;20411;-53
2023/06/28 00:09:04;;;;;;;1.00;0.50;;;21.60;1.00;;;;;;5137496;27;20898;-50
2023/06/28 00:11:30;;;;;;;0.70;0.40;;;21.50;1.00;;;;;;5136580;27;20425;-51
2023/06/28 00:13:58;;;;;;;0.93;0.50;;;21.50;1.00;;;;;;5133774;27;20491;-54
2023/06/28 00:16:25;;;;;;;0.90;0.40;;;21.50;1.00;;;;;;5134169;27;20858;-52
2023/06/28 00:18:51;;;;;;;1.00;0.40;;;21.30;1.00;;;;;;5134104;27;20419;-51
2023/06/28 00:21:22;;;;;;;0.82;0.40;;;21.30;1.00;;;;;;5134244;27;20457;-53
2023/06/28 00:23:49;;;;;;;0.60;0.40;;;21.20;1.00;;;;;;5134107;27;20430;-52
2023/06/28 00:26:16;;;;;;;0.98;0.40;;;21.10;1.00;;;;;;5134807;27;20528;-54
2023/06/28 00:28:43;;;;;;;1.10;0.40;;;21.00;1.00;;;;;;5136843;27;20784;-53
2023/06/28 00:31:10;;;;;;;0.70;0.40;;;20.90;1.00;;;;;;5137560;27;20464;-52
2023/06/28 00:33:37;;;;;;;0.80;0.43;;;21.00;1.00;;;;;;5136621;27;20414;-53
2023/06/28 00:36:05;;;;;;;1.17;0.40;;;21.10;1.00;;;;;;5137069;27;20414;-53
2023/06/28 00:38:34;;;;;;;1.25;0.40;;;21.10;1.00;;;;;;5136922;27;20454;-53
2023/06/28 00:41:01;;;;;;;0.90;0.80;;;21.20;1.00;;;;;;5137232;27;20772;-52
2023/06/28 00:43:28;;;;;;;2.00;0.40;;;21.10;1.00;;;;;;5137013;27;20491;-52
2023/06/28 00:45:55;;;;;;;1.30;0.40;;;21.10;1.00;;;;;;5137210;27;20471;-51
2023/06/28 00:48:23;;;;;;;1.13;0.40;;;21.10;1.00;;;;;;5137151;27;20474;-54
2023/06/28 00:50:50;;;;;;;1.10;0.50;;;21.10;1.00;;;;;;5137316;27;20414;-51
2023/06/28 00:53:17;;;;;;;0.60;0.40;;;21.10;1.00;;;;;;5137195;27;20430;-50
2023/06/28 00:55:46;;;;;;;1.60;0.50;;;21.00;1.00;;;;;;5137267;27;20475;-52
2023/06/28 00:58:13;;;;;;;0.80;0.50;;;21.00;1.00;;;;;;5136696;27;20490;-54
2023/06/28 01:00:40;;;;;;;1.00;0.40;;;21.10;1.00;;;;;;5136222;27;20430;-52
2023/06/28 01:03:06;;;;;;;0.88;0.40;;;21.10;1.00;;;;;;5137201;27;20472;-51
2023/06/28 01:05:33;;;;;;;1.00;0.40;;;20.90;1.00;;;;;;5136922;27;20422;-52
2023/06/28 01:08:01;;;;;;;0.77;0.40;;;20.70;1.00;;;;;;5136810;27;20488;-53
2023/06/28 01:10:28;;;;;;;0.50;0.40;;;20.70;1.00;;;;;;5136530;27;20718;-51
2023/06/28 01:12:57;;;;;;;1.00;0.50;;;20.70;1.00;;;;;;5136433;27;20426;-49
2023/06/28 01:15:24;;;;;;;1.00;0.40;;;20.70;1.00;;;;;;5136356;27;20421;-54
2023/06/28 01:17:51;;;;;;;2.10;0.50;;;20.70;1.00;;;;;;5136849;27;20422;-49
2023/06/28 01:20:18;;;;;;;1.65;0.40;;;20.80;1.00;;;;;;5136450;27;20495;-51
2023/06/28 01:22:55;;;;;;;1.60;0.90;;;20.70;1.00;;;;;;5136850;27;20422;-52
2023/06/28 01:25:22;;;;;;;1.40;0.60;;;20.70;1.00;;;;;;5136395;27;20771;-51
2023/06/28 01:27:50;;;;;;;1.50;0.45;;;20.50;1.00;;;;;;5136361;27;20421;-51
2023/06/28 01:30:23;;;;;;;1.10;0.47;;;20.40;1.00;;;;;;5136619;27;20410;-50
2023/06/28 01:32:50;;;;;;;0.70;0.50;;;20.40;1.00;;;;;;5136302;27;20460;-53
2023/06/28 01:35:17;;;;;;;1.60;0.60;;;20.40;1.00;;;;;;5135692;27;20468;-50
2023/06/28 01:37:45;;;;;;;1.23;0.52;;;20.50;1.00;;;;;;5134736;27;20821;-52
2023/06/28 01:40:15;;;;;;;0.80;0.50;;;20.50;1.00;;;;;;5134594;27;20483;-54
2023/06/28 01:42:43;;;;;;;1.50;0.50;;;20.50;1.00;;;;;;5134669;27;20414;-53
2023/06/28 01:45:10;;;;;;;1.50;0.50;;;20.40;1.00;;;;;;5134401;27;20418;-53
2023/06/28 01:47:38;;;;;;;0.90;0.50;;;20.30;1.00;;;;;;5134535;27;20422;-54
2023/06/28 01:50:06;;;;;;;1.25;0.50;;;20.20;1.00;;;;;;5134130;27;20791;-52
2023/06/28 01:52:33;;;;;;;0.70;0.50;;;20.30;1.00;;;;;;5136115;27;20515;-53
2023/06/28 01:55:00;;;;;;;1.40;0.50;;;20.40;1.00;;;;;;5135615;27;20729;-54
2023/06/28 01:57:28;;;;;;;0.90;0.50;;;20.60;1.00;;;;;;5135803;27;20411;-53
2023/06/28 01:59:55;;;;;;;2.20;0.60;;;20.60;1.00;;;;;;5135676;27;20508;-55
2023/06/28 02:02:22;;;;;;;0.65;0.50;;;20.50;1.00;;;;;;5136130;27;20414;-53
2023/06/28 02:04:49;;;;;;;1.80;0.60;;;20.50;1.00;;;;;;5135701;28;20457;-54
2023/06/28 02:07:16;;;;;;;1.05;0.60;;;20.40;1.00;;;;;;5135607;28;20810;-52
2023/06/28 02:09:43;;;;;;;1.30;0.50;;;20.30;1.00;;;;;;5135467;28;20541;-51
2023/06/28 02:12:11;;;;;;;0.75;0.60;;;20.30;1.00;;;;;;5135936;28;20773;-51
2023/06/28 02:14:39;;;;;;;0.70;0.50;;;20.30;1.00;;;;;;5135976;28;20422;-50
2023/06/28 02:17:13;;;;;;;0.70;0.50;;;20.30;1.00;;;;;;5135778;28;20422;-53
2023/06/28 02:19:41;;;;;;;1.00;0.50;;;20.30;1.00;;;;;;5135583;28;20776;-50
2023/06/28 02:22:08;;;;;;;0.70;0.50;;;20.30;1.00;;;;;;5134867;28;20462;-53
2023/06/28 02:24:35;;;;;;;1.70;0.50;;;20.30;1.00;;;;;;5133879;28;20457;-53
2023/06/28 02:27:02;;;;;;;2.40;0.50;;;20.30;1.00;;;;;;5133875;28;20454;-54
2023/06/28 02:29:29;;;;;;;1.33;0.60;;;20.30;1.00;;;;;;5134006;28;20877;-51
2023/06/28 02:31:58;;;;;;;1.70;0.50;;;20.10;1.00;;;;;;5134561;28;20516;-49
2023/06/28 02:34:25;;;;;;;1.00;0.50;;;20.00;1.00;;;;;;5134694;28;20423;-53
2023/06/28 02:36:52;;;;;;;1.50;0.50;;;20.00;1.00;;;;;;5134302;28;20434;-54
2023/06/28 02:39:19;;;;;;;0.93;0.50;;;20.10;1.00;;;;;;5133830;28;20812;-53
2023/06/28 02:41:46;;;;;;;1.70;0.50;;;20.00;1.00;;;;;;5134977;28;20431;-51
2023/06/28 02:44:13;;;;;;;1.10;0.60;;;20.00;1.00;;;;;;5135076;28;20422;-54
2023/06/28 02:46:40;;;;;;;2.17;0.57;;;19.90;1.00;;;;;;5135318;28;20465;-54
2023/06/28 02:49:09;;;;;;;1.00;0.50;;;19.80;1.00;;;;;;5135396;28;20414;-51
2023/06/28 02:51:36;;;;;;;0.85;0.60;;;19.70;1.00;;;;;;5135489;28;20467;-53
2023/06/28 02:54:03;;;;;;;1.10;0.60;;;19.90;1.00;;;;;;5135360;28;20797;-54
2023/06/28 02:56:30;;;;;;;1.30;0.70;;;19.90;1.00;;;;;;5135660;28;20429;-52
2023/06/28 02:58:56;;;;;;;1.80;0.70;;;19.60;1.00;;;;;;5135278;28;20842;-52
2023/06/28 03:01:24;;;;;;;1.40;0.70;;;19.40;1.00;;;;;;5135429;28;20910;-52
2023/06/28 03:03:51;;;;;;;1.60;0.60;;;19.20;94.50;;;;;;5135504;28;20448;-54
2023/06/28 03:06:20;;;;;;;0.90;0.60;;;19.20;94.90;;;;;;5133446;28;20726;-52
2023/06/28 03:08:47;;;;;;;1.00;0.60;;;19.30;94.40;;;;;;5137542;27;20525;-54
2023/06/28 03:11:13;;;;;;;1.10;0.65;;;19.20;1.00;;;;;;5139072;27;20513;-49
2023/06/28 03:13:41;;;;;;;1.00;0.70;;;19.10;23.30;;;;;;5139114;27;20426;-54
2023/06/28 03:16:09;;;;;;;1.10;0.60;;;19.10;37.20;;;;;;5137733;27;20461;-53
2023/06/28 03:18:36;;;;;;;0.90;0.70;;;19.00;80.90;;;;;;5138362;27;20490;-54
2023/06/28 03:21:03;;;;;;;0.80;0.60;;;18.90;48.50;;;;;;5138919;27;20430;-54
2023/06/28 03:23:31;;;;;;;1.43;0.70;;;19.00;56.70;;;;;;5139011;27;20510;-49
2023/06/28 03:25:58;;;;;;;0.90;0.55;;;19.10;10.50;;;;;;5138945;27;20430;-51
2023/06/28 03:28:25;;;;;;;1.13;0.60;;;19.20;1.00;;;;;;5138170;27;20501;-51
2023/06/28 03:30:52;;;;;;;1.10;0.60;;;19.10;1.00;;;;;;5138589;27;20422;-52
2023/06/28 03:33:19;;;;;;;1.90;0.60;;;19.10;1.00;;;;;;5139076;27;20425;-50
2023/06/28 03:35:46;;;;;;;1.40;0.50;;;19.10;1.00;;;;;;5138127;27;20430;-49
2023/06/28 03:38:13;;;;;;;1.00;0.60;;;19.10;1.00;;;;;;5136376;27;20483;-50
2023/06/28 03:40:41;;;;;;;2.35;0.60;;;19.10;1.00;;;;;;5137972;27;20902;-52
2023/06/28 03:43:08;;;;;;;2.00;0.60;;;19.20;1.00;;;;;;5138549;27;20427;-54
2023/06/28 03:45:36;;;;;;;0.80;0.60;;;19.20;1.00;;;;;;5137761;27;20454;-54
2023/06/28 03:48:03;;;;;;;1.00;0.60;;;19.20;1.00;;;;;;5136490;27;20509;-53
2023/06/28 03:50:30;;;;;;;1.10;0.60;;;19.10;1.00;;;;;;5137279;27;20604;-46
2023/06/28 03:52:57;;;;;;;1.90;0.60;;;19.00;99.90;;;;;;5137566;27;20468;-56
2023/06/28 03:55:24;;;;;;;0.90;0.60;;;18.80;99.90;;;;;;5137567;27;20422;-51
2023/06/28 03:57:53;;;;;;;1.20;0.70;;;18.60;99.90;;;;;;5137441;27;20792;-54
2023/06/28 04:00:20;;;;;;;1.40;0.60;;;18.50;1.00;;;;;;5137243;27;20704;-53
2023/06/28 04:02:47;;;;;;;1.98;0.60;;;18.40;1.00;;;;;;5137091;27;20422;-53
2023/06/28 04:05:14;;;;;;;1.13;0.60;;;18.30;1.00;;;;;;5138000;27;20473;-53
2023/06/28 04:07:41;;;;;;;1.10;0.60;;;18.40;1.00;;;;;;5136734;27;20896;-54
2023/06/28 04:10:09;;;;;;;0.90;0.60;;;18.60;1.00;;;;;;5137284;27;20483;-53
2023/06/28 04:12:36;;;;;;;1.50;0.60;;;18.60;1.00;;;;;;5136813;27;20826;-50
2023/06/28 04:15:07;;;;;;;1.70;0.60;;;18.60;1.00;;;;;;5136152;27;20414;-54
2023/06/28 04:17:34;;;;;;;2.50;0.60;;;18.60;1.00;;;;;;5136826;27;20521;-51
2023/06/28 04:20:05;;;;;;;0.82;0.60;;;18.60;1.00;;;;;;5136168;27;20422;-53
2023/06/28 04:22:32;;;;;;;1.00;0.60;;;18.50;1.00;;;;;;5135714;27;20434;-53
2023/06/28 04:24:59;;;;;;;2.30;0.60;;;18.50;1.00;;;;;;5136496;27;20422;-51
2023/06/28 04:27:27;;;;;;;1.00;0.60;;;18.50;1.00;;;;;;5134967;27;20475;-53
2023/06/28 04:29:53;;;;;;;1.45;0.70;;;18.50;1.00;;;;;;5135986;27;20430;-49
2023/06/28 04:32:24;;;;;;;0.90;0.60;;;18.50;1.00;;;;;;5135294;27;20471;-51
2023/06/28 04:34:53;;;;;;;1.20;0.60;;;18.50;1.00;;;;;;5135869;27;20538;-52
2023/06/28 04:37:20;;;;;;;0.95;0.70;;;18.50;1.00;;;;;;5135604;27;20422;-54
2023/06/28 04:39:47;;;;;;;1.13;0.60;;;18.50;1.00;;;;;;5134639;27;20726;-55
2023/06/28 04:42:15;;;;;;;1.90;0.60;;;18.50;1.00;;;;;;5133775;27;20462;-51
2023/06/28 04:44:43;;;;;;;1.90;0.60;;;18.60;1.00;;;;;;5135497;27;20433;-52
2023/06/28 04:47:15;;;;;;;1.80;0.60;;;18.50;1.00;;;;;;5135634;27;20430;-50
2023/06/28 04:49:45;;;;;;;1.60;0.60;;;18.50;1.00;;;;;;5134974;27;20483;-52
2023/06/28 04:52:13;;;;;;;0.98;0.60;;;18.50;1.00;;;;;;5133735;27;20699;-55
2023/06/28 04:54:40;;;;;;;1.05;0.70;;;18.50;1.00;;;;;;5132641;27;20532;-53
2023/06/28 04:57:07;;;;;;;1.30;0.70;;;18.50;1.00;;;;;;5135685;27;20429;-53
2023/06/28 04:59:34;;;;;;;1.02;0.60;;;18.60;1.00;;;;;;5135659;27;20738;-52
2023/06/28 05:02:05;;;;;;;1.10;0.60;;;18.70;1.00;;;;;;5135005;27;20434;-54
2023/06/28 05:04:33;;;;;;;2.20;0.60;;;18.80;1.00;;;;;;5133341;27;20500;-50
2023/06/28 05:07:04;;;;;;;1.60;0.60;;;18.80;1.00;;;;;;5132723;27;20529;-54
2023/06/28 05:09:33;;;;;;;1.20;0.60;;;19.20;99.90;;;;;;5133792;27;20453;-54
2023/06/28 05:12:01;;;;;;;2.85;0.60;;;19.30;99.90;;;;;;5135355;27;20421;-52
2023/06/28 05:14:30;;;;;;;1.60;0.60;;;19.30;99.90;;;;;;5134424;27;20971;-54
2023/06/28 05:16:57;;;;;;;1.30;0.60;;;19.30;99.90;;;;;;5135049;27;20830;-52
2023/06/28 05:19:25;;;;;;;2.00;0.60;;;19.20;99.90;;;;;;5133307;27;20419;-51
2023/06/28 05:21:54;;;;;;;1.27;0.60;;;19.20;99.90;;;;;;5134365;27;20430;-55
2023/06/28 05:24:22;;;;;;;1.38;0.60;;;19.30;99.90;;;;;;5133495;27;20438;-51
2023/06/28 05:26:49;;;;;;;0.70;0.50;;;19.20;99.90;;;;;;5132612;27;20933;-51
2023/06/28 05:29:16;;;;;;;0.90;0.60;;;19.30;99.90;;;;;;5135114;27;20560;-56
2023/06/28 05:31:43;;;;;;;1.30;0.70;;;19.50;99.90;;;;;;5134223;27;20422;-55
2023/06/28 05:34:11;;;;;;;1.10;0.60;;;19.40;99.90;;;;;;5134326;27;20475;-56
2023/06/28 05:36:38;;;;;;;1.88;0.70;;;19.30;99.90;;;;;;5131804;27;20428;-53
2023/06/28 05:39:05;;;;;;;1.40;0.50;;;19.30;99.90;;;;;;5131208;27;20415;-54
2023/06/28 05:41:35;;;;;;;1.25;0.60;;;19.40;99.90;;;;;;5130885;27;20482;-55
2023/06/28 05:44:02;;;;;;;1.85;0.60;;;19.30;99.90;;;;;;5130205;27;20420;-53
2023/06/28 05:46:28;;;;;;;0.90;0.60;;;19.40;99.90;;;;;;5129931;27;20518;-53
2023/06/28 05:48:58;;;;;;;0.90;0.60;;;19.40;99.90;;;;;;5130486;27;20457;-55
2023/06/28 05:51:25;;;;;;;3.00;0.60;;;19.50;94.10;;;;;;5133979;27;20418;-52
2023/06/28 05:53:52;;;;;;;1.10;0.70;;;19.40;49.30;;;;;;5133844;27;20445;-51
2023/06/28 05:56:19;;;;;;;2.53;0.60;;;19.50;36.90;;;;;;5133882;27;20428;-52
2023/06/28 05:58:47;;;;;;;1.10;0.63;;;19.60;25.70;;;;;;5132574;27;20426;-54
2023/06/28 06:01:14;;;;;;;1.20;0.60;;;19.70;28.00;;;;;;5132660;27;20422;-55
2023/06/28 06:03:41;;;;;;;0.70;0.50;;;19.80;3.60;;;;;;5132483;27;20471;-52
2023/06/28 06:06:08;;;;;;;1.40;0.60;;;19.90;1.00;;;;;;5132339;28;20425;-52
2023/06/28 06:08:35;;;;;;;1.40;0.60;;;20.00;1.00;;;;;;5132036;28;20485;-50
2023/06/28 06:11:03;;;;;;;1.73;0.50;;;20.10;1.00;;;;;;5130517;28;20498;-54
2023/06/28 06:13:30;;;;;;;1.40;0.60;;;20.30;1.00;;;;;;5133260;28;20522;-51
2023/06/28 06:15:58;;;;;;;2.20;0.70;;;20.40;1.00;;;;;;5132673;28;20469;-51
2023/06/28 06:18:25;;;;;;;0.80;0.50;;;20.30;1.00;;;;;;5131406;28;20434;-52
2023/06/28 06:20:52;;;;;;;0.80;0.50;;;20.30;1.00;;;;;;5134258;28;20426;-53
2023/06/28 06:23:19;;;;;;;0.83;0.57;;;20.50;1.00;;;;;;5130600;28;20470;-54
2023/06/28 06:25:46;;;;;;;1.60;0.50;;;20.80;1.00;;;;;;5128522;28;20490;-53
2023/06/28 06:28:13;;;;;;;2.00;0.50;;;21.20;1.00;;;;;;5132618;28;20418;-53
2023/06/28 06:30:40;;;;;;;2.00;0.50;;;21.20;1.00;;;;;;5130505;28;20830;-54
2023/06/28 06:33:08;;;;;;;1.67;0.50;;;21.50;1.00;;;;;;5131732;28;20475;-58
2023/06/28 06:35:35;;;;;;;0.80;0.50;;;21.80;1.00;;;;;;5130571;28;20724;-57
2023/06/28 06:38:02;;;;;;;1.48;0.50;;;21.80;1.00;;;;;;5130062;28;20845;-58
2023/06/28 06:40:29;;;;;;;1.43;0.60;;;21.80;1.00;;;;;;5131587;28;20515;-58
2023/06/28 06:42:56;;;;;;;0.90;0.50;;;21.90;1.00;;;;;;5134958;27;20475;-58
2023/06/28 06:45:23;;;;;;;1.10;0.50;;;21.90;1.00;;;;;;5137545;27;20706;-56
2023/06/28 06:47:50;;;;;;;1.33;0.60;;;21.90;1.00;;;;;;5134881;27;20480;-58
2023/06/28 06:50:19;;;;;;;1.17;0.50;;;21.80;1.00;;;;;;5135472;27;20872;-55
2023/06/28 06:52:46;;;;;;;1.10;0.50;;;21.90;1.00;;;;;;5133369;27;20449;-57
2023/06/28 06:55:13;;;;;;;1.00;0.50;;;22.00;1.00;;;;;;5128433;27;20524;-58
2023/06/28 06:57:39;;;;;;;1.70;0.60;;;21.90;1.00;;;;;;5124637;27;20462;-56
2023/06/28 07:00:08;;;;;;;1.40;0.50;;;22.00;1.00;;;;;;5132559;27;20454;-56
2023/06/28 07:02:35;;;;;;;0.63;0.50;;;21.80;1.00;;;;;;5135111;27;20741;-56
2023/06/28 07:05:02;;;;;;;0.70;0.50;;;21.90;1.00;;;;;;5135211;27;20454;-57
2023/06/28 07:07:31;;;;;;;0.90;0.40;;;21.90;1.00;;;;;;5134061;27;20919;-55
2023/06/28 07:09:57;;;;;;;1.45;0.50;;;22.00;1.00;;;;;;5135840;27;20886;-58
2023/06/28 07:12:24;;;;;;;1.75;0.57;;;22.10;1.00;;;;;;5135530;27;20680;-57
2023/06/28 07:14:51;;;;;;;2.35;0.45;;;22.20;1.00;;;;;;5135487;27;20457;-56
2023/06/28 07:17:18;;;;;;;0.83;0.50;;;22.40;1.00;;;;;;5135456;27;20507;-59
2023/06/28 07:19:45;;;;;;;0.90;0.60;;;22.30;1.00;;;;;;5131251;27;20725;-57
2023/06/28 07:22:13;;;;;;;1.00;0.40;;;22.00;1.00;;;;;;5135023;27;20466;-57
2023/06/28 07:24:41;;;;;;;0.80;0.50;;;22.10;1.00;;;;;;5132713;27;20426;-58
2023/06/28 07:27:08;;;;;;;1.60;0.50;;;22.10;1.00;;;;;;5123831;27;20798;-57
2023/06/28 07:29:35;;;;;;;0.88;0.47;;;21.90;1.00;;;;;;5133774;27;20473;-56
2023/06/28 07:32:02;;;;;;;1.10;0.40;;;21.90;1.00;;;;;;5134941;27;20418;-56
2023/06/28 07:34:29;;;;;;;1.20;0.40;;;22.00;1.00;;;;;;5131341;27;20426;-56
2023/06/28 07:36:56;;;;;;;1.73;0.50;;;22.00;1.00;;;;;;5131879;27;20613;-56
2023/06/28 07:39:23;;;;;;;0.82;0.50;;;21.80;1.00;;;;;;5133458;27;20446;-58
2023/06/28 07:41:52;;;;;;;0.77;0.47;;;21.70;1.00;;;;;;5130918;27;20723;-58
2023/06/28 07:44:18;;;;;;;1.55;0.50;;;21.90;1.00;;;;;;5135949;27;20425;-59
2023/06/28 07:46:45;;;;;;;1.20;0.40;;;22.10;1.00;;;;;;5135561;27;20746;-58
2023/06/28 07:49:12;;;;;;;1.40;0.40;;;22.40;1.00;;;;;;5133788;27;20462;-58
2023/06/28 07:51:39;;;;;;;0.98;0.47;;;22.50;1.00;;;;;;5132491;27;20560;-57
2023/06/28 07:54:06;;;;;;;1.40;0.43;;;22.60;1.00;;;;;;5127170;27;20493;-59
2023/06/28 07:56:33;;;;;;;1.20;0.43;;;22.50;1.00;;;;;;5136063;27;20419;-59
2023/06/28 07:59:05;;;;;;;0.80;0.40;;;22.60;1.00;;;;;;5133353;27;20542;-58
2023/06/28 08:01:33;;;;;;;0.90;0.50;;;22.60;1.00;;;;;;5133485;27;20489;-58
2023/06/28 08:04:00;;;;;;;0.95;0.50;;;22.50;1.00;;;;;;5134775;27;20918;-58
2023/06/28 08:06:28;;;;;;;0.80;0.60;;;22.60;1.00;;;;;;5131186;27;20922;-58
2023/06/28 08:08:55;;;;;;;1.40;0.50;;;22.20;1.00;;;;;;5128174;27;20428;-59
2023/06/28 08:11:22;;;;;;;1.60;0.50;;;22.40;1.00;;;;;;5112253;28;20431;-59
2023/06/28 08:13:50;;;;;;;0.90;0.50;;;22.60;1.00;;;;;;5122038;27;20456;-58
2023/06/28 08:16:19;;;;;;;1.20;0.50;;;22.50;1.00;;;;;;5133712;27;20717;-58
2023/06/28 08:18:46;;;;;;;0.97;0.50;;;22.40;1.00;;;;;;5132885;27;20496;-60
2023/06/28 08:21:15;;;;;;;1.80;0.50;;;22.70;1.00;;;;;;5130470;27;20434;-58
2023/06/28 08:23:42;;;;;;;0.60;0.40;;;22.80;1.00;;;;;;5134384;27;20849;-59
2023/06/28 08:26:09;;;;;;;0.93;0.50;;;23.00;1.00;;;;;;5133916;27;20496;-58
2023/06/28 08:28:36;;;;;;;1.20;0.50;;;23.30;1.00;;;;;;5120662;27;20855;-58
2023/06/28 08:31:03;;;;;;;0.80;0.50;;;23.30;1.00;;;;;;5118800;27;20796;-58
2023/06/28 08:33:32;;;;;;;1.60;0.50;;;23.40;1.00;;;;;;5129321;27;20880;-58
2023/06/28 08:36:04;;;;;;;1.10;0.50;;;23.50;1.00;;;;;;5112689;28;20420;-60
2023/06/28 08:38:31;;;;;;;0.60;0.40;;;23.40;1.00;;;;;;5121853;27;20525;-56
2023/06/28 08:40:58;;;;;;;1.00;0.40;;;23.20;1.00;;;;;;5129311;27;20557;-57
2023/06/28 08:43:25;;;;;;;0.60;0.50;;;23.20;1.00;;;;;;5131664;27;20430;-58
2023/06/28 08:45:53;;;;;;;0.90;0.50;;;23.00;1.00;;;;;;5127830;27;20543;-59
2023/06/28 08:48:20;;;;;;;2.85;0.50;;;22.80;1.00;;;;;;5128115;27;20428;-57
2023/06/28 08:50:50;;;;;;;0.80;0.50;;;22.50;1.00;;;;;;5115273;27;20446;-58
2023/06/28 08:53:19;;;;;;;1.40;0.50;;;22.70;1.00;;;;;;5120434;27;20529;-57
2023/06/28 08:55:47;;;;;;;1.50;0.50;;;23.00;1.00;;;;;;5125075;27;20431;-58
2023/06/28 08:58:16;;;;;;;0.90;0.43;;;23.40;1.00;;;;;;5123844;27;20464;-58
2023/06/28 09:00:44;;;;;;;1.20;0.50;;;23.40;1.00;;;;;;5113160;27;20432;-57
2023/06/28 09:03:13;;;;;;;1.90;0.60;;;22.90;1.00;;;;;;5111701;27;20503;-58
2023/06/28 09:05:40;;;;;;;2.10;0.50;;;22.70;1.00;;;;;;5131212;27;20434;-58
2023/06/28 09:08:10;;;;;;;1.00;0.50;;;22.80;1.00;;;;;;5133008;27;20431;-58
2023/06/28 09:10:37;;;;;;;0.85;0.50;;;23.00;1.00;;;;;;5126822;27;20465;-58
2023/06/28 09:13:05;;;;;;;0.70;0.40;;;23.30;1.00;;;;;;5118990;27;20443;-58
2023/06/28 09:15:35;;;;;;;0.60;0.50;;;23.60;1.00;;;;;;5133061;27;20883;-58
2023/06/28 09:18:02;;;;;;;0.70;0.50;;;23.90;1.00;;;;;;5129934;27;20674;-59
2023/06/28 09:20:29;;;;;;;0.70;0.50;;;24.00;1.00;;;;;;5129236;27;20471;-59
2023/06/28 09:22:57;;;;;;;0.80;0.50;;;24.00;1.00;;;;;;5124802;27;20930;-58
2023/06/28 09:25:27;;;;;;;1.00;0.40;;;24.10;1.00;;;;;;5120103;27;20436;-58
2023/06/28 09:27:54;;;;;;;1.27;0.50;;;24.00;1.00;;;;;;5119379;27;20677;-58
2023/06/28 09:30:21;;;;;;;1.80;0.50;;;23.90;1.00;;;;;;5122027;27;20868;-58
2023/06/28 09:32:51;;;;;;;2.15;0.60;;;24.00;1.00;;;;;;5119307;27;20489;-58
2023/06/28 09:35:18;;;;;;;0.95;0.40;;;23.80;1.00;;;;;;5128150;27;20438;-59
2023/06/28 09:37:50;;;;;;;1.60;0.50;;;23.70;1.00;;;;;;5125350;27;20426;-59
2023/06/28 09:40:17;;;;;;;0.90;0.50;;;23.90;1.00;;;;;;5114799;27;20873;-59
2023/06/28 09:42:46;;;;;;;1.10;0.50;;;23.90;1.00;;;;;;5127405;27;20529;-60
2023/06/28 09:45:26;;;;;;;0.73;0.43;;;24.10;1.00;;;;;;5128419;27;20427;-60
2023/06/28 09:47:58;;;;;;;1.10;0.40;;;24.40;1.00;;;;;;5121675;27;20858;-58
2023/06/28 09:50:37;;;;;;;1.40;0.50;;;24.30;1.00;;;;;;5130667;27;21059;-58
2023/06/28 09:53:06;;;;;;;0.68;0.40;;;24.10;1.00;;;;;;5132758;27;20955;-58
2023/06/28 09:55:33;;;;;;;1.20;0.43;;;24.30;1.00;;;;;;5110787;28;20428;-58
2023/06/28 09:58:02;;;;;;;0.80;0.50;;;24.50;1.00;;;;;;5112574;27;20943;-57
2023/06/28 10:00:31;;;;;;;0.80;0.40;;;24.80;1.00;;;;;;5124499;27;20420;-58
2023/06/28 10:03:03;;;;;;;1.15;0.50;;;24.90;1.00;;;;;;5119995;27;20941;-60
2023/06/28 10:05:32;;;;;;;0.80;0.40;;;25.10;1.00;;;;;;5130436;27;20489;-58
2023/06/28 10:08:01;;;;;;;2.60;0.50;;;25.10;1.00;;;;;;5121676;28;20466;-58
2023/06/28 10:10:29;;;;;;;1.10;0.60;;;24.90;1.00;;;;;;5116270;28;20489;-59
2023/06/28 10:12:58;;;;;;;0.90;0.40;;;24.60;1.00;;;;;;5125411;28;20415;-58
2023/06/28 10:15:35;;;;;;;0.90;0.60;;;24.50;1.00;;;;;;5129914;28;20492;-57
2023/06/28 10:18:02;;;;;;;1.27;0.50;;;24.60;1.00;;;;;;5130615;27;20436;-60
2023/06/28 10:20:30;;;;;;;0.70;0.50;;;24.70;1.00;;;;;;5130464;27;20434;-60
2023/06/28 10:22:59;;;;;;;1.55;0.43;;;24.70;1.00;;;;;;5133684;27;20552;-60
2023/06/28 10:25:27;;;;;;;0.98;0.50;;;24.20;1.00;;;;;;5136507;27;20503;-59
2023/06/28 10:27:55;;;;;;;2.30;0.50;;;24.60;1.00;;;;;;5132088;27;20422;-59
2023/06/28 10:30:23;;;;;;;0.80;0.47;;;24.80;1.00;;;;;;5128028;27;20503;-60
2023/06/28 10:32:53;;;;;;;1.77;0.50;;;25.20;1.00;;;;;;5135966;27;20438;-59
2023/06/28 10:35:20;;;;;;;1.00;0.50;;;25.40;1.00;;;;;;5135358;27;20438;-59
2023/06/28 10:37:48;;;;;;;0.95;0.50;;;25.50;1.00;;;;;;5131053;27;20780;-58
2023/06/28 10:40:15;;;;;;;0.80;0.40;;;25.80;1.00;;;;;;5115431;27;21021;-58
2023/06/28 10:42:43;;;;;;;1.15;0.50;;;26.20;1.00;;;;;;5117044;28;20412;-59
2023/06/28 10:45:10;;;;;;;1.20;0.50;;;26.60;1.00;;;;;;5131453;27;20428;-59
2023/06/28 10:47:50;;;;;;;0.93;0.50;;;26.80;1.00;;;;;;5136817;27;20454;-59
2023/06/28 10:50:22;;;;;;;1.70;0.50;;;27.30;1.00;;;;;;5119561;27;20436;-59
2023/06/28 10:52:53;;;;;;;0.73;0.50;;;26.50;1.00;;;;;;5124889;27;20430;-59
2023/06/28 10:55:20;;;;;;;1.00;0.50;;;25.80;1.00;;;;;;5123555;27;20605;-58
2023/06/28 10:57:47;;;;;;;1.40;0.50;;;26.10;1.00;;;;;;5134593;27;20419;-62
2023/06/28 11:00:45;;;;;;;0.70;0.50;;;26.00;1.00;;;;;;5123935;27;20957;-60
2023/06/28 11:03:13;;;;;;;1.00;0.50;;;26.00;1.00;;;;;;5133952;27;20423;-60
2023/06/28 11:05:53;;;;;;;1.10;0.50;;;26.10;1.00;;;;;;5135084;27;20453;-60
2023/06/28 11:08:21;;;;;;;0.85;0.40;;;25.80;1.00;;;;;;5135731;27;20426;-60
2023/06/28 11:10:49;;;;;;;1.30;0.50;;;25.70;1.00;;;;;;5131971;27;20426;-61
2023/06/28 11:13:32;;;;;;;0.80;0.50;;;25.70;1.00;;;;;;5132794;27;20714;-60
2023/06/28 11:16:08;;;;;;;1.30;0.50;;;26.40;1.00;;;;;;5134916;27;20759;-60
2023/06/28 11:18:35;;;;;;;1.10;0.40;;;27.00;1.00;;;;;;5132283;27;20426;-59
2023/06/28 11:21:05;;;;;;;0.98;0.43;;;27.60;1.00;;;;;;5132529;27;20436;-59
2023/06/28 11:23:37;;;;;;;0.60;0.40;;;27.80;1.00;;;;;;5131181;27;20463;-62
2023/06/28 11:26:05;;;;;;;1.75;0.40;;;27.70;1.00;;;;;;5126371;27;20422;-58
2023/06/28 11:28:34;;;;;;;0.80;0.40;;;27.90;1.00;;;;;;5127594;27;20450;-60
2023/06/28 11:31:15;;;;;;;0.85;0.40;;;28.30;1.00;;;;;;5133990;27;20462;-57
2023/06/28 11:33:42;;;;;;;1.17;0.55;;;28.50;1.00;;;;;;5135077;27;20483;-58
2023/06/28 11:36:12;;;;;;;1.08;0.40;;;28.40;1.00;;;;;;5131337;27;20458;-58
2023/06/28 11:38:43;;;;;;;0.60;0.40;;;28.10;1.00;;;;;;5134739;27;20479;-58
2023/06/28 11:41:11;;;;;;;0.60;0.40;;;27.50;1.00;;;;;;5133817;27;20442;-57
2023/06/28 11:43:38;;;;;;;1.40;0.40;;;27.20;1.00;;;;;;5131642;27;20496;-59
2023/06/28 11:46:05;;;;;;;0.80;0.50;;;26.70;1.00;;;;;;5135095;27;20472;-58
2023/06/28 11:48:33;;;;;;;0.80;0.40;;;27.30;1.00;;;;;;5132897;27;20498;-58
2023/06/28 11:51:01;;;;;;;1.00;0.40;;;27.40;1.00;;;;;;5132270;27;20498;-58
2023/06/28 11:53:30;;;;;;;1.05;0.40;;;27.50;1.00;;;;;;5131601;27;20539;-58
2023/06/28 11:55:59;;;;;;;0.80;0.50;;;28.10;1.00;;;;;;5133305;27;20458;-58
2023/06/28 11:58:30;;;;;;;1.50;0.40;;;28.40;1.00;;;;;;5128559;27;20458;-55
2023/06/28 12:00:57;;;;;;;1.40;0.47;;;28.80;1.00;;;;;;5123805;27;20440;-59
2023/06/28 12:03:35;;;;;;;0.80;0.50;;;28.40;1.00;;;;;;5130554;27;20453;-59
2023/06/28 12:06:03;;;;;;;0.60;0.50;;;27.70;1.00;;;;;;5130205;27;20430;-62
2023/06/28 12:08:36;;;;;;;0.63;0.40;;;27.20;1.00;;;;;;5131998;27;21200;-62
2023/06/28 12:11:09;;;;;;;0.90;0.40;;;27.50;1.00;;;;;;5133690;27;20465;-63
2023/06/28 12:13:36;;;;;;;0.70;0.40;;;27.70;1.00;;;;;;5126599;27;20461;-62
2023/06/28 12:16:12;;;;;;;2.28;0.40;;;28.20;1.00;;;;;;5127722;27;20422;-62
2023/06/28 12:18:59;;;;;;;0.93;0.40;;;29.00;1.00;;;;;;5131163;27;20422;-62
2023/06/28 12:21:27;;;;;;;0.70;0.40;;;29.30;1.00;;;;;;5130912;27;20678;-62
2023/06/28 12:24:12;;;;;;;1.00;0.50;;;29.50;1.00;;;;;;5132738;27;20434;-62
2023/06/28 12:26:39;;;;;;;0.70;0.40;;;29.30;1.00;;;;;;5110434;28;20424;-62
2023/06/28 12:29:07;;;;;;;1.40;0.40;;;29.00;1.00;;;;;;5112649;27;20477;-64
2023/06/28 12:31:42;;;;;;;1.10;0.50;;;28.70;1.00;;;;;;5131156;27;20449;-62
2023/06/28 12:34:09;;;;;;;1.20;0.50;;;28.50;1.00;;;;;;5131478;27;20523;-62
2023/06/28 12:36:38;;;;;;;0.77;0.50;;;28.00;1.00;;;;;;5128862;27;20422;-62
2023/06/28 12:39:07;;;;;;;0.70;0.40;;;27.70;1.00;;;;;;5131603;27;20432;-62
2023/06/28 12:41:34;;;;;;;1.53;0.50;;;27.60;1.00;;;;;;5132517;27;20841;-62
2023/06/28 12:44:01;;;;;;;1.17;0.40;;;26.90;1.00;;;;;;5132500;27;20430;-62
2023/06/28 12:46:28;;;;;;;1.13;0.50;;;26.60;1.00;;;;;;5132541;27;20446;-62
2023/06/28 12:48:57;;;;;;;0.60;0.50;;;26.80;1.00;;;;;;5124447;27;20484;-61
2023/06/28 12:51:24;;;;;;;1.40;0.50;;;27.30;1.00;;;;;;5112757;28;20855;-62
2023/06/28 12:53:51;;;;;;;1.50;0.50;;;27.60;1.00;;;;;;5129245;27;20415;-61
2023/06/28 12:56:20;;;;;;;1.60;0.40;;;27.50;1.00;;;;;;5132495;27;20841;-62
2023/06/28 12:58:47;;;;;;;1.80;0.50;;;27.80;1.00;;;;;;5132551;27;20938;-62
2023/06/28 13:01:14;;;;;;;1.60;0.50;;;27.70;1.00;;;;;;5133375;27;20421;-63